createdAt,value
2022-09-06T00:00:31.712Z,21.90
2022-09-06T00:03:01.200Z,21.90
2022-09-06T00:05:30.883Z,21.80
2022-09-06T00:08:00.587Z,21.40
2022-09-06T00:10:29.623Z,21.30
2022-09-06T00:13:01.246Z,20.90
2022-09-06T00:15:29.691Z,20.30
2022-09-06T00:18:01.581Z,20.40
2022-09-06T00:20:31.389Z,20.70
2022-09-06T00:23:01.114Z,20.70
2022-09-06T00:25:30.121Z,20.80
2022-09-06T00:27:59.158Z,21.10
2022-09-06T00:30:28.923Z,21.00
2022-09-06T00:32:58.074Z,21.20
2022-09-06T00:35:29.044Z,21.30
2022-09-06T00:38:01.652Z,21.40
2022-09-06T00:40:33.680Z,21.50
2022-09-06T00:43:01.970Z,21.50
2022-09-06T00:45:32.471Z,21.50
2022-09-06T00:48:02.070Z,21.50
2022-09-06T00:50:32.009Z,21.50
2022-09-06T00:53:00.768Z,21.40
2022-09-06T00:55:29.281Z,21.40
2022-09-06T00:57:57.892Z,21.40
2022-09-06T01:00:26.322Z,21.40
2022-09-06T01:02:55.687Z,21.30
2022-09-06T01:05:29.148Z,21.00
2022-09-06T01:08:14.457Z,20.10
2022-09-06T01:11:08.011Z,18.60
2022-09-06T01:13:46.822Z,19.00
2022-09-06T01:16:24.127Z,19.40
2022-09-06T01:19:29.413Z,19.90
2022-09-06T01:22:10.642Z,19.90
2022-09-06T01:25:00.835Z,19.80
2022-09-06T01:28:02.950Z,19.80
2022-09-06T01:30:34.412Z,20.10
2022-09-06T01:33:11.830Z,20.40
2022-09-06T01:35:44.767Z,20.50
2022-09-06T01:38:14.535Z,20.70
2022-09-06T01:40:43.007Z,20.80
2022-09-06T01:43:17.867Z,20.80
2022-09-06T01:45:55.297Z,20.90
2022-09-06T01:48:31.628Z,20.90
2022-09-06T01:51:10.521Z,21.00
2022-09-06T01:53:55.424Z,21.00
2022-09-06T01:56:33.720Z,21.00
2022-09-06T01:59:27.080Z,21.10
2022-09-06T02:02:04.093Z,21.10
2022-09-06T02:04:37.924Z,21.10
2022-09-06T02:07:14.427Z,21.20
2022-09-06T02:09:45.775Z,21.20
2022-09-06T02:12:18.233Z,21.20
2022-09-06T02:14:53.979Z,21.20
2022-09-06T02:17:28.604Z,21.30
2022-09-06T02:20:00.217Z,21.30
2022-09-06T02:22:33.020Z,21.30
2022-09-06T02:25:04.226Z,21.30
2022-09-06T02:27:33.782Z,21.40
2022-09-06T02:30:04.086Z,21.30
2022-09-06T02:32:36.058Z,20.90
2022-09-06T02:35:10.515Z,21.20
2022-09-06T02:37:39.363Z,21.00
2022-09-06T02:40:09.054Z,20.80
2022-09-06T02:42:37.513Z,21.10
2022-09-06T02:45:08.187Z,21.20
2022-09-06T02:47:36.643Z,21.30
2022-09-06T02:50:05.025Z,21.40
2022-09-06T02:52:33.283Z,21.40
2022-09-06T02:55:02.765Z,21.40
2022-09-06T02:57:31.044Z,21.30
2022-09-06T02:59:59.257Z,21.20
2022-09-06T03:02:29.325Z,20.70
2022-09-06T03:04:57.639Z,20.30
2022-09-06T03:07:26.360Z,20.00
2022-09-06T03:09:57.116Z,20.10
2022-09-06T03:12:25.384Z,20.50
2022-09-06T03:14:55.074Z,20.70
2022-09-06T03:17:23.561Z,20.90
2022-09-06T03:19:53.431Z,21.00
2022-09-06T03:22:21.704Z,21.10
2022-09-06T03:24:50.012Z,21.10
2022-09-06T03:27:18.227Z,21.10
2022-09-06T03:29:46.560Z,21.20
2022-09-06T03:32:14.920Z,21.30
2022-09-06T03:34:43.379Z,21.30
2022-09-06T03:37:13.064Z,21.30
2022-09-06T03:39:41.449Z,21.30
2022-09-06T03:42:09.759Z,20.90
2022-09-06T03:44:38.099Z,21.00
2022-09-06T03:47:06.943Z,21.20
2022-09-06T03:49:35.203Z,21.30
2022-09-06T03:52:03.966Z,21.30
2022-09-06T03:54:33.780Z,21.20
2022-09-06T03:57:02.099Z,20.70
2022-09-06T03:59:30.553Z,20.60
2022-09-06T04:01:58.922Z,20.60
2022-09-06T04:04:27.363Z,20.80
2022-09-06T04:06:55.657Z,20.90
2022-09-06T04:09:24.059Z,21.00
2022-09-06T04:11:53.657Z,21.10
2022-09-06T04:14:21.944Z,21.10
2022-09-06T04:16:50.458Z,21.10
2022-09-06T04:19:18.862Z,21.10
2022-09-06T04:21:47.133Z,21.10
2022-09-06T04:24:15.503Z,21.00
2022-09-06T04:26:44.008Z,20.90
2022-09-06T04:29:13.723Z,20.90
2022-09-06T04:31:41.900Z,20.80
2022-09-06T04:34:10.220Z,20.80
2022-09-06T04:36:38.544Z,20.80
2022-09-06T04:39:06.989Z,20.80
2022-09-06T04:41:35.255Z,20.80
2022-09-06T04:44:03.883Z,20.80
2022-09-06T04:46:33.513Z,20.80
2022-09-06T04:49:01.800Z,20.70
2022-09-06T04:51:39.959Z,20.70
2022-09-06T04:54:08.276Z,20.00
2022-09-06T04:56:36.668Z,19.80
2022-09-06T04:59:04.968Z,19.30
2022-09-06T05:01:34.640Z,18.90
2022-09-06T05:04:03.427Z,19.30
2022-09-06T05:06:31.659Z,19.70
2022-09-06T05:08:59.915Z,20.00
2022-09-06T05:11:28.363Z,19.90
2022-09-06T05:13:56.575Z,20.00
2022-09-06T05:16:24.928Z,20.20
2022-09-06T05:18:54.627Z,20.20
2022-09-06T05:21:22.968Z,20.30
2022-09-06T05:23:54.323Z,20.30
2022-09-06T05:26:24.855Z,20.30
2022-09-06T05:28:53.063Z,19.70
2022-09-06T05:31:27.995Z,19.30
2022-09-06T05:33:58.647Z,18.50
2022-09-06T05:36:27.523Z,18.40
2022-09-06T05:38:57.733Z,18.40
2022-09-06T05:41:26.588Z,18.70
2022-09-06T05:43:54.882Z,19.00
2022-09-06T05:46:23.377Z,19.40
2022-09-06T05:48:56.024Z,19.50
2022-09-06T05:51:25.704Z,19.70
2022-09-06T05:53:53.986Z,19.90
2022-09-06T05:56:22.663Z,19.90
2022-09-06T05:58:50.920Z,20.00
2022-09-06T06:01:20.878Z,20.10
2022-09-06T06:03:53.378Z,20.10
2022-09-06T06:06:22.954Z,20.10
2022-09-06T06:08:53.258Z,20.10
2022-09-06T06:11:21.978Z,20.10
2022-09-06T06:13:50.957Z,20.20
2022-09-06T06:16:20.994Z,20.20
2022-09-06T06:18:52.269Z,20.20
2022-09-06T06:21:23.811Z,20.20
2022-09-06T06:23:55.530Z,20.20
2022-09-06T06:26:24.632Z,20.20
2022-09-06T06:28:53.438Z,20.30
2022-09-06T06:31:22.851Z,20.30
2022-09-06T06:33:51.749Z,20.30
2022-09-06T06:36:22.759Z,20.10
2022-09-06T06:38:55.655Z,20.10
2022-09-06T06:41:26.620Z,20.30
2022-09-06T06:43:55.778Z,20.40
2022-09-06T06:46:25.915Z,20.40
2022-09-06T06:48:55.778Z,20.40
2022-09-06T06:51:26.772Z,20.50
2022-09-06T06:53:57.922Z,20.50
2022-09-06T06:56:28.397Z,20.40
2022-09-06T06:58:58.498Z,20.40
2022-09-06T07:01:29.001Z,20.50
2022-09-06T07:03:58.159Z,20.50
2022-09-06T07:09:19.302Z,20.50
2022-09-06T07:11:48.924Z,20.60
2022-09-06T07:14:17.634Z,20.60
2022-09-06T07:16:46.247Z,20.60
2022-09-06T07:22:05.202Z,20.60
2022-09-06T07:24:35.911Z,20.60
2022-09-06T07:29:52.600Z,20.70
2022-09-06T07:32:21.210Z,20.60
2022-09-06T07:34:49.491Z,20.70
2022-09-06T07:37:17.837Z,20.80
2022-09-06T07:39:47.745Z,20.90
2022-09-06T07:42:16.872Z,20.90
2022-09-06T07:44:45.199Z,20.90
2022-09-06T07:53:10.800Z,21.10
2022-09-06T07:55:42.124Z,21.20
2022-09-06T07:58:11.058Z,21.30
2022-09-06T08:00:41.425Z,21.30
2022-09-06T08:03:10.269Z,21.40
2022-09-06T08:11:17.616Z,21.90
2022-09-06T08:13:46.336Z,21.90
2022-09-06T08:16:16.252Z,22.00
2022-09-06T08:18:45.436Z,22.00
2022-09-06T08:21:15.288Z,22.10
2022-09-06T08:23:48.649Z,22.10
2022-09-06T08:26:20.854Z,22.00
2022-09-06T08:28:49.155Z,22.00
2022-09-06T08:31:19.318Z,22.00
2022-09-06T08:33:47.774Z,22.00
2022-09-06T08:36:16.376Z,22.00
2022-09-06T08:38:45.710Z,22.00
2022-09-06T08:41:25.709Z,22.00
2022-09-06T08:46:54.106Z,22.10
2022-09-06T08:49:23.221Z,22.00
2022-09-06T08:52:15.729Z,22.10
2022-09-06T08:54:49.547Z,22.10
2022-09-06T08:57:35.026Z,22.10
2022-09-06T09:00:11.246Z,22.10
2022-09-06T09:02:45.651Z,22.00
2022-09-06T09:05:24.339Z,22.10
2022-09-06T09:08:05.301Z,22.20
2022-09-06T09:10:42.385Z,22.10
2022-09-06T09:13:23.428Z,22.20
2022-09-06T09:15:51.864Z,22.20
2022-09-06T09:18:24.788Z,22.20
2022-09-06T09:20:53.734Z,22.20
2022-09-06T09:23:22.209Z,22.20
2022-09-06T09:25:53.513Z,22.30
2022-09-06T09:28:25.207Z,22.30
2022-09-06T09:30:55.635Z,22.30
2022-09-06T09:33:26.899Z,22.40
2022-09-06T09:35:56.120Z,22.50
2022-09-06T09:38:27.041Z,22.40
2022-09-06T09:40:57.216Z,22.40
2022-09-06T09:43:30.971Z,22.40
2022-09-06T09:46:11.230Z,22.50
2022-09-06T09:48:40.152Z,22.50
2022-09-06T09:51:26.626Z,22.60
2022-09-06T09:53:57.018Z,22.50
2022-09-06T09:56:39.887Z,22.60
2022-09-06T09:59:22.990Z,22.70
2022-09-06T10:01:53.269Z,22.70
2022-09-06T10:04:45.710Z,22.70
2022-09-06T10:07:16.951Z,22.70
2022-09-06T10:09:48.112Z,22.70
2022-09-06T10:12:30.120Z,22.70
2022-09-06T10:15:06.984Z,22.80
2022-09-06T10:17:37.801Z,22.90
2022-09-06T10:20:09.359Z,23.00
2022-09-06T10:22:50.454Z,23.10
2022-09-06T10:25:39.525Z,23.10
2022-09-06T10:28:31.199Z,23.20
2022-09-06T10:31:35.271Z,23.40
2022-09-06T10:34:25.173Z,23.50
2022-09-06T10:37:03.579Z,23.60
2022-09-06T10:39:44.608Z,23.80
2022-09-06T10:42:23.922Z,23.90
2022-09-06T10:45:16.796Z,23.90
2022-09-06T10:47:59.479Z,24.10
2022-09-06T10:50:37.571Z,24.10
2022-09-06T10:53:10.407Z,24.30
2022-09-06T10:55:41.279Z,24.40
2022-09-06T11:00:47.754Z,24.50
2022-09-06T11:06:28.828Z,24.80
2022-09-06T11:09:03.770Z,24.90
2022-09-06T11:11:37.855Z,25.10
2022-09-06T11:14:11.466Z,25.20
2022-09-06T11:16:45.760Z,25.20
2022-09-06T11:19:21.573Z,25.40
2022-09-06T11:22:13.442Z,25.40
2022-09-06T11:25:00.996Z,25.60
2022-09-06T11:27:36.982Z,25.80
2022-09-06T11:30:07.268Z,25.90
2022-09-06T11:32:40.813Z,26.00
2022-09-06T11:35:21.640Z,26.10
2022-09-06T11:37:59.608Z,26.10
2022-09-06T11:40:30.056Z,26.10
2022-09-06T11:43:17.502Z,26.30
2022-09-06T11:45:48.806Z,26.50
2022-09-06T11:49:00.715Z,26.60
2022-09-06T11:51:49.264Z,26.60
2022-09-06T11:54:26.996Z,26.60
2022-09-06T11:57:01.012Z,26.50
2022-09-06T11:59:37.190Z,26.60
2022-09-06T12:02:08.019Z,26.70
2022-09-06T12:05:10.547Z,26.80
2022-09-06T12:08:30.417Z,27.30
2022-09-06T12:11:05.320Z,27.40
2022-09-06T12:13:42.634Z,27.50
2022-09-06T12:16:12.618Z,27.50
2022-09-06T12:18:59.106Z,27.20
2022-09-06T12:21:42.472Z,27.20
2022-09-06T12:24:50.878Z,27.20
2022-09-06T12:27:20.617Z,27.00
2022-09-06T12:29:58.272Z,27.00
2022-09-06T12:32:37.059Z,27.00
2022-09-06T12:37:57.408Z,27.50
2022-09-06T12:40:29.314Z,27.60
2022-09-06T12:42:58.469Z,27.70
2022-09-06T12:45:27.819Z,27.80
2022-09-06T12:48:08.636Z,27.90
2022-09-06T12:50:37.828Z,27.60
2022-09-06T12:53:23.366Z,27.60
2022-09-06T12:56:05.216Z,27.60
2022-09-06T12:58:34.237Z,27.50
2022-09-06T13:01:10.065Z,27.40
2022-09-06T13:03:41.822Z,27.50
2022-09-06T13:06:21.203Z,27.60
2022-09-06T13:08:54.635Z,27.60
2022-09-06T13:11:29.573Z,27.50
2022-09-06T13:13:58.165Z,27.30
2022-09-06T13:16:28.668Z,27.40
2022-09-06T13:19:11.593Z,27.30
2022-09-06T13:21:42.230Z,27.20
2022-09-06T13:24:20.799Z,27.30
2022-09-06T13:26:51.281Z,27.30
2022-09-06T13:29:27.318Z,27.30
2022-09-06T13:31:57.704Z,27.30
2022-09-06T13:34:28.195Z,27.30
2022-09-06T13:37:01.799Z,27.40
2022-09-06T13:39:32.785Z,27.40
2022-09-06T13:42:08.519Z,27.50
2022-09-06T13:44:38.789Z,27.70
2022-09-06T13:47:07.896Z,27.60
2022-09-06T13:49:36.146Z,27.60
2022-09-06T13:52:06.103Z,27.50
2022-09-06T13:54:34.920Z,27.40
2022-09-06T13:57:03.499Z,27.60
2022-09-06T13:59:33.297Z,27.60
2022-09-06T14:02:03.811Z,27.30
2022-09-06T14:04:32.664Z,27.50
2022-09-06T14:07:00.988Z,27.70
2022-09-06T14:09:29.621Z,27.80
2022-09-06T14:11:58.263Z,27.70
2022-09-06T14:14:27.039Z,27.60
2022-09-06T14:16:57.255Z,27.70
2022-09-06T14:19:25.683Z,27.90
2022-09-06T14:21:54.289Z,27.90
2022-09-06T14:24:22.637Z,28.00
2022-09-06T14:26:51.392Z,28.30
2022-09-06T14:29:19.809Z,28.30
2022-09-06T14:31:49.045Z,28.40
2022-09-06T14:34:18.938Z,28.60
2022-09-06T14:36:47.198Z,28.30
2022-09-06T14:39:15.568Z,28.40
2022-09-06T14:41:43.991Z,28.30
2022-09-06T14:44:12.382Z,28.30
2022-09-06T14:46:40.857Z,28.30
2022-09-06T14:49:11.294Z,28.40
2022-09-06T14:51:41.495Z,28.30
2022-09-06T14:54:11.678Z,28.40
2022-09-06T14:56:41.910Z,28.40
2022-09-06T14:59:10.888Z,28.50
2022-09-06T15:01:41.178Z,28.40
2022-09-06T15:04:11.845Z,28.40
2022-09-06T15:06:47.041Z,28.40
2022-09-06T15:09:16.328Z,28.40
2022-09-06T15:11:48.144Z,28.40
2022-09-06T15:14:18.636Z,28.40
2022-09-06T15:16:52.046Z,28.40
2022-09-06T15:19:24.458Z,28.40
2022-09-06T15:21:54.515Z,28.40
2022-09-06T15:24:23.158Z,28.30
2022-09-06T15:26:51.856Z,28.10
2022-09-06T15:29:20.575Z,28.10
2022-09-06T15:31:52.036Z,28.10
2022-09-06T15:34:23.480Z,28.00
2022-09-06T15:36:54.653Z,28.00
2022-09-06T15:39:23.606Z,27.90
2022-09-06T15:41:52.735Z,28.00
2022-09-06T15:44:22.503Z,28.10
2022-09-06T15:46:53.220Z,28.20
2022-09-06T15:49:27.774Z,28.10
2022-09-06T15:51:58.667Z,28.10
2022-09-06T15:54:41.432Z,28.10
2022-09-06T15:57:10.670Z,28.20
2022-09-06T15:59:40.523Z,28.00
2022-09-06T16:02:09.653Z,28.00
2022-09-06T16:04:38.073Z,28.10
2022-09-06T16:07:08.465Z,27.90
2022-09-06T16:09:37.320Z,28.00
2022-09-06T16:12:06.167Z,28.10
2022-09-06T16:14:35.787Z,28.00
2022-09-06T16:17:04.977Z,28.00
2022-09-06T16:19:33.845Z,28.10
2022-09-06T16:22:02.529Z,27.80
2022-09-06T16:24:33.127Z,27.90
2022-09-06T16:27:02.496Z,27.80
2022-09-06T16:29:31.890Z,27.80
2022-09-06T16:32:03.559Z,27.90
2022-09-06T16:34:32.031Z,28.00
2022-09-06T16:37:00.684Z,27.90
2022-09-06T16:39:29.146Z,27.70
2022-09-06T16:41:59.330Z,27.70
2022-09-06T16:44:28.547Z,27.80
2022-09-06T16:46:57.661Z,27.70
2022-09-06T16:49:26.235Z,27.80
2022-09-06T16:51:54.732Z,27.70
2022-09-06T16:54:23.187Z,27.70
2022-09-06T16:56:51.616Z,27.70
2022-09-06T16:59:21.892Z,27.60
2022-09-06T17:01:51.699Z,27.50
2022-09-06T17:04:20.265Z,27.40
2022-09-06T17:06:48.673Z,27.50
2022-09-06T17:09:19.239Z,27.50
2022-09-06T17:11:50.318Z,27.50
2022-09-06T17:14:20.607Z,27.50
2022-09-06T17:17:07.647Z,27.40
2022-09-06T17:19:38.034Z,27.40
2022-09-06T17:22:06.564Z,27.40
2022-09-06T17:24:35.109Z,27.40
2022-09-06T17:27:03.725Z,27.30
2022-09-06T17:29:33.723Z,27.40
2022-09-06T17:32:04.074Z,27.30
2022-09-06T17:34:32.725Z,27.10
2022-09-06T17:37:01.171Z,27.20
2022-09-06T17:39:29.605Z,27.20
2022-09-06T17:41:59.001Z,27.10
2022-09-06T17:44:28.627Z,26.90
2022-09-06T17:47:14.835Z,27.00
2022-09-06T17:49:43.422Z,26.90
2022-09-06T17:52:12.135Z,26.90
2022-09-06T17:54:40.561Z,26.90
2022-09-06T17:57:08.906Z,26.90
2022-09-06T17:59:38.489Z,26.70
2022-09-06T18:02:09.140Z,26.70
2022-09-06T18:04:37.583Z,26.60
2022-09-06T18:07:06.131Z,26.70
2022-09-06T18:09:34.567Z,26.50
2022-09-06T18:12:03.016Z,26.40
2022-09-06T18:14:31.332Z,26.40
2022-09-06T18:16:59.900Z,26.20
2022-09-06T18:19:29.939Z,26.00
2022-09-06T18:21:58.441Z,25.90
2022-09-06T18:24:27.193Z,25.90
2022-09-06T18:26:55.690Z,25.80
2022-09-06T18:29:24.082Z,25.70
2022-09-06T18:31:54.137Z,25.50
2022-09-06T18:34:22.734Z,25.40
2022-09-06T18:36:52.589Z,25.50
2022-09-06T18:39:21.165Z,25.40
2022-09-06T18:42:01.316Z,25.40
2022-09-06T18:44:32.422Z,25.40
2022-09-06T18:47:02.364Z,25.40
2022-09-06T18:49:32.520Z,25.40
2022-09-06T18:52:02.689Z,25.40
2022-09-06T18:54:31.576Z,25.40
2022-09-06T18:57:00.388Z,25.30
2022-09-06T18:59:29.243Z,25.20
2022-09-06T19:01:58.047Z,25.20
2022-09-06T19:04:26.635Z,25.10
2022-09-06T19:06:54.984Z,24.90
2022-09-06T19:09:25.165Z,25.00
2022-09-06T19:11:53.865Z,25.00
2022-09-06T19:14:23.476Z,24.60
2022-09-06T19:16:54.269Z,24.60
2022-09-06T19:19:23.320Z,24.60
2022-09-06T19:21:51.790Z,24.60
2022-09-06T19:24:22.614Z,24.50
2022-09-06T19:26:52.968Z,24.50
2022-09-06T19:29:21.824Z,24.50
2022-09-06T19:31:50.551Z,24.50
2022-09-06T19:34:19.207Z,24.50
2022-09-06T19:36:48.885Z,24.20
2022-09-06T19:39:17.934Z,24.20
2022-09-06T19:41:47.689Z,24.30
2022-09-06T19:44:20.751Z,24.30
2022-09-06T19:46:49.684Z,24.40
2022-09-06T19:49:20.182Z,24.40
2022-09-06T19:51:50.849Z,24.30
2022-09-06T19:54:20.422Z,24.20
2022-09-06T19:56:48.895Z,24.10
2022-09-06T19:59:19.288Z,24.00
2022-09-06T20:01:48.383Z,23.80
2022-09-06T20:04:20.055Z,23.80
2022-09-06T20:06:48.714Z,23.80
2022-09-06T20:09:17.401Z,23.70
2022-09-06T20:11:46.506Z,23.70
2022-09-06T20:14:14.951Z,23.60
2022-09-06T20:16:45.503Z,23.60
2022-09-06T20:19:15.219Z,23.50
2022-09-06T20:21:44.373Z,23.50
2022-09-06T20:24:12.805Z,23.50
2022-09-06T20:26:41.472Z,23.50
2022-09-06T20:29:10.379Z,23.50
2022-09-06T20:31:39.728Z,23.50
2022-09-06T20:34:09.503Z,23.50
2022-09-06T20:36:38.023Z,23.50
2022-09-06T20:39:06.350Z,23.50
2022-09-06T20:41:35.219Z,23.50
2022-09-06T20:44:04.014Z,23.50
2022-09-06T20:46:33.989Z,23.50
2022-09-06T20:49:04.722Z,23.50
2022-09-06T20:51:37.260Z,23.50
2022-09-06T20:54:06.983Z,23.60
2022-09-06T20:56:37.707Z,23.60
2022-09-06T20:59:08.635Z,23.60
2022-09-06T21:01:40.318Z,23.60
2022-09-06T21:04:10.315Z,23.60
2022-09-06T21:06:41.332Z,23.50
2022-09-06T21:09:12.363Z,23.40
2022-09-06T21:11:41.551Z,23.30
2022-09-06T21:14:10.923Z,23.30
2022-09-06T21:16:40.595Z,23.30
2022-09-06T21:19:10.782Z,23.20
2022-09-06T21:21:41.159Z,23.20
2022-09-06T21:24:10.434Z,23.10
2022-09-06T21:26:38.914Z,23.10
2022-09-06T21:29:07.239Z,23.10
2022-09-06T21:31:37.136Z,23.20
2022-09-06T21:34:11.451Z,23.10
2022-09-06T21:36:44.540Z,23.20
2022-09-06T21:39:13.447Z,23.20
2022-09-06T21:41:43.454Z,23.20
2022-09-06T21:44:12.770Z,23.20
2022-09-06T21:46:41.917Z,23.20
2022-09-06T21:49:12.503Z,22.90
2022-09-06T21:51:41.653Z,22.90
2022-09-06T21:54:11.828Z,22.90
2022-09-06T21:56:41.037Z,22.40
2022-09-06T21:59:09.773Z,22.10
2022-09-06T22:01:39.842Z,22.30
2022-09-06T22:04:08.807Z,22.40
2022-09-06T22:06:37.871Z,22.30
2022-09-06T22:09:10.823Z,22.10
2022-09-06T22:11:42.138Z,22.10
2022-09-06T22:14:11.788Z,22.10
2022-09-06T22:16:41.588Z,22.00
2022-09-06T22:19:11.066Z,21.90
2022-09-06T22:21:39.935Z,21.90
2022-09-06T22:24:10.146Z,21.90
2022-09-06T22:26:41.522Z,21.90
2022-09-06T22:29:11.928Z,21.90
2022-09-06T22:31:40.923Z,21.80
2022-09-06T22:34:10.402Z,21.80
2022-09-06T22:36:38.821Z,21.90
2022-09-06T22:39:07.183Z,21.80
2022-09-06T22:41:35.515Z,21.70
2022-09-06T22:44:06.103Z,21.50
2022-09-06T22:46:34.676Z,21.60
2022-09-06T22:49:04.159Z,21.80
2022-09-06T22:51:32.644Z,21.60
2022-09-06T22:54:00.967Z,21.50
2022-09-06T22:56:29.417Z,21.70
2022-09-06T22:58:57.754Z,21.70
2022-09-06T23:01:27.793Z,21.70
2022-09-06T23:03:56.355Z,21.90
2022-09-06T23:06:24.696Z,22.10
2022-09-06T23:08:52.993Z,22.10
2022-09-06T23:11:21.463Z,22.10
2022-09-06T23:13:49.927Z,22.10
2022-09-06T23:16:19.804Z,21.90
2022-09-06T23:18:49.737Z,21.60
2022-09-06T23:21:20.056Z,20.80
2022-09-06T23:23:49.471Z,20.30
2022-09-06T23:26:19.938Z,19.70
2022-09-06T23:28:51.319Z,20.00
2022-09-06T23:31:19.836Z,20.20
2022-09-06T23:33:53.355Z,20.30
2022-09-06T23:36:21.892Z,20.10
2022-09-06T23:38:50.755Z,20.50
2022-09-06T23:41:19.158Z,20.00
2022-09-06T23:43:47.422Z,20.50
2022-09-06T23:46:16.243Z,20.70
2022-09-06T23:48:44.958Z,20.80
2022-09-06T23:51:15.149Z,20.90
2022-09-06T23:53:43.462Z,21.10
2022-09-06T23:56:12.331Z,21.10
2022-09-06T23:58:40.920Z,21.00
